sensor_id;sensor_type;location;lat;lon;timestamp;P1;durP1;ratioP1;P2;durP2;ratioP2
24279;SDS011;12395;42.808;23.408;2023-06-26T00:01:49;18.70;;;10.70;;
24279;SDS011;12395;42.808;23.408;2023-06-26T00:04:15;22.40;;;10.20;;
24279;SDS011;12395;42.808;23.408;2023-06-26T00:06:40;20.80;;;10.23;;
24279;SDS011;12395;42.808;23.408;2023-06-26T00:09:06;23.60;;;10.73;;
24279;SDS011;12395;42.808;23.408;2023-06-26T00:11:32;20.13;;;10.43;;
24279;SDS011;12395;42.808;23.408;2023-06-26T00:13:58;19.48;;;10.43;;
24279;SDS011;12395;42.808;23.408;2023-06-26T00:16:25;19.52;;;10.40;;
24279;SDS011;12395;42.808;23.408;2023-06-26T00:18:51;21.33;;;10.55;;
24279;SDS011;12395;42.808;23.408;2023-06-26T00:21:17;19.00;;;10.13;;
24279;SDS011;12395;42.808;23.408;2023-06-26T00:23:43;22.67;;;10.80;;
24279;SDS011;12395;42.808;23.408;2023-06-26T00:26:09;20.85;;;10.88;;
24279;SDS011;12395;42.808;23.408;2023-06-26T00:28:35;24.15;;;11.00;;
24279;SDS011;12395;42.808;23.408;2023-06-26T00:31:00;21.00;;;11.32;;
24279;SDS011;12395;42.808;23.408;2023-06-26T00:33:26;21.80;;;11.23;;
24279;SDS011;12395;42.808;23.408;2023-06-26T00:35:51;20.50;;;10.98;;
24279;SDS011;12395;42.808;23.408;2023-06-26T00:38:16;21.40;;;11.38;;
24279;SDS011;12395;42.808;23.408;2023-06-26T00:40:42;21.42;;;10.88;;
24279;SDS011;12395;42.808;23.408;2023-06-26T00:43:08;23.20;;;10.75;;
24279;SDS011;12395;42.808;23.408;2023-06-26T00:45:34;20.77;;;10.85;;
24279;SDS011;12395;42.808;23.408;2023-06-26T00:47:59;22.55;;;10.65;;
24279;SDS011;12395;42.808;23.408;2023-06-26T00:50:24;19.50;;;10.07;;
24279;SDS011;12395;42.808;23.408;2023-06-26T00:52:51;20.52;;;10.77;;
24279;SDS011;12395;42.808;23.408;2023-06-26T00:55:17;22.55;;;11.15;;
24279;SDS011;12395;42.808;23.408;2023-06-26T00:57:42;21.35;;;10.57;;
24279;SDS011;12395;42.808;23.408;2023-06-26T01:00:11;22.77;;;10.77;;
24279;SDS011;12395;42.808;23.408;2023-06-26T01:02:37;21.23;;;10.18;;
24279;SDS011;12395;42.808;23.408;2023-06-26T01:05:03;20.67;;;10.67;;
24279;SDS011;12395;42.808;23.408;2023-06-26T01:07:32;18.58;;;10.68;;
24279;SDS011;12395;42.808;23.408;2023-06-26T01:10:02;19.63;;;10.73;;
24279;SDS011;12395;42.808;23.408;2023-06-26T01:17:38;19.55;;;10.15;;
24279;SDS011;12395;42.808;23.408;2023-06-26T01:20:05;22.80;;;11.07;;
24279;SDS011;12395;42.808;23.408;2023-06-26T01:22:36;18.27;;;10.65;;
24279;SDS011;12395;42.808;23.408;2023-06-26T01:28:06;19.70;;;10.77;;
24279;SDS011;12395;42.808;23.408;2023-06-26T01:30:34;19.95;;;11.18;;
24279;SDS011;12395;42.808;23.408;2023-06-26T01:33:07;18.58;;;10.13;;
24279;SDS011;12395;42.808;23.408;2023-06-26T01:35:33;18.55;;;10.27;;
24279;SDS011;12395;42.808;23.408;2023-06-26T01:40:54;21.25;;;10.65;;
24279;SDS011;12395;42.808;23.408;2023-06-26T01:43:39;19.73;;;10.32;;
24279;SDS011;12395;42.808;23.408;2023-06-26T01:49:02;17.52;;;10.40;;
24279;SDS011;12395;42.808;23.408;2023-06-26T01:51:35;23.35;;;10.55;;
24279;SDS011;12395;42.808;23.408;2023-06-26T01:54:10;22.08;;;10.75;;
24279;SDS011;12395;42.808;23.408;2023-06-26T01:56:43;20.70;;;11.15;;
24279;SDS011;12395;42.808;23.408;2023-06-26T02:01:36;18.60;;;9.85;;
24279;SDS011;12395;42.808;23.408;2023-06-26T02:04:02;19.42;;;10.93;;
24279;SDS011;12395;42.808;23.408;2023-06-26T02:06:28;21.02;;;11.13;;
24279;SDS011;12395;42.808;23.408;2023-06-26T02:08:53;20.70;;;10.45;;
24279;SDS011;12395;42.808;23.408;2023-06-26T02:11:21;18.83;;;10.65;;
24279;SDS011;12395;42.808;23.408;2023-06-26T02:13:47;19.50;;;10.50;;
24279;SDS011;12395;42.808;23.408;2023-06-26T02:16:12;20.85;;;11.10;;
24279;SDS011;12395;42.808;23.408;2023-06-26T02:18:38;18.95;;;10.27;;
24279;SDS011;12395;42.808;23.408;2023-06-26T02:21:03;21.70;;;10.77;;
24279;SDS011;12395;42.808;23.408;2023-06-26T02:23:31;24.25;;;11.45;;
24279;SDS011;12395;42.808;23.408;2023-06-26T02:25:57;20.70;;;10.82;;
24279;SDS011;12395;42.808;23.408;2023-06-26T02:28:22;21.52;;;10.15;;
24279;SDS011;12395;42.808;23.408;2023-06-26T02:30:47;21.40;;;10.80;;
24279;SDS011;12395;42.808;23.408;2023-06-26T02:33:13;22.30;;;10.35;;
24279;SDS011;12395;42.808;23.408;2023-06-26T02:35:38;20.98;;;10.98;;
24279;SDS011;12395;42.808;23.408;2023-06-26T02:38:03;21.13;;;10.50;;
24279;SDS011;12395;42.808;23.408;2023-06-26T02:40:29;22.52;;;10.75;;
24279;SDS011;12395;42.808;23.408;2023-06-26T02:42:54;20.10;;;10.40;;
24279;SDS011;12395;42.808;23.408;2023-06-26T02:45:20;20.55;;;10.35;;
24279;SDS011;12395;42.808;23.408;2023-06-26T02:47:45;18.52;;;10.07;;
24279;SDS011;12395;42.808;23.408;2023-06-26T02:50:11;22.02;;;11.07;;
24279;SDS011;12395;42.808;23.408;2023-06-26T02:52:36;20.58;;;10.57;;
24279;SDS011;12395;42.808;23.408;2023-06-26T02:55:02;22.20;;;10.40;;
24279;SDS011;12395;42.808;23.408;2023-06-26T02:57:28;21.40;;;9.68;;
24279;SDS011;12395;42.808;23.408;2023-06-26T02:59:53;19.33;;;10.00;;
24279;SDS011;12395;42.808;23.408;2023-06-26T03:02:19;19.17;;;10.10;;
24279;SDS011;12395;42.808;23.408;2023-06-26T03:04:44;20.20;;;10.18;;
24279;SDS011;12395;42.808;23.408;2023-06-26T03:07:09;19.90;;;10.70;;
24279;SDS011;12395;42.808;23.408;2023-06-26T03:09:35;19.63;;;9.75;;
24279;SDS011;12395;42.808;23.408;2023-06-26T03:12:00;20.75;;;9.93;;
24279;SDS011;12395;42.808;23.408;2023-06-26T03:14:26;19.15;;;10.07;;
24279;SDS011;12395;42.808;23.408;2023-06-26T03:16:52;20.85;;;10.02;;
24279;SDS011;12395;42.808;23.408;2023-06-26T03:19:18;20.70;;;10.60;;
24279;SDS011;12395;42.808;23.408;2023-06-26T03:21:43;20.75;;;10.63;;
24279;SDS011;12395;42.808;23.408;2023-06-26T03:24:09;21.42;;;10.88;;
24279;SDS011;12395;42.808;23.408;2023-06-26T03:26:34;20.88;;;10.38;;
24279;SDS011;12395;42.808;23.408;2023-06-26T03:28:59;23.65;;;10.10;;
24279;SDS011;12395;42.808;23.408;2023-06-26T03:31:25;22.23;;;9.75;;
24279;SDS011;12395;42.808;23.408;2023-06-26T03:33:50;17.10;;;9.90;;
24279;SDS011;12395;42.808;23.408;2023-06-26T03:36:16;19.02;;;9.85;;
24279;SDS011;12395;42.808;23.408;2023-06-26T03:38:41;20.10;;;9.63;;
24279;SDS011;12395;42.808;23.408;2023-06-26T03:41:15;20.23;;;9.82;;
24279;SDS011;12395;42.808;23.408;2023-06-26T03:43:59;20.05;;;9.90;;
24279;SDS011;12395;42.808;23.408;2023-06-26T03:46:51;18.92;;;9.25;;
24279;SDS011;12395;42.808;23.408;2023-06-26T03:49:17;19.52;;;10.35;;
24279;SDS011;12395;42.808;23.408;2023-06-26T03:51:42;18.17;;;8.90;;
24279;SDS011;12395;42.808;23.408;2023-06-26T03:54:08;19.45;;;10.35;;
24279;SDS011;12395;42.808;23.408;2023-06-26T03:56:33;21.70;;;10.32;;
24279;SDS011;12395;42.808;23.408;2023-06-26T03:58:59;21.90;;;10.40;;
24279;SDS011;12395;42.808;23.408;2023-06-26T04:01:25;18.65;;;10.23;;
24279;SDS011;12395;42.808;23.408;2023-06-26T04:03:50;18.80;;;10.38;;
24279;SDS011;12395;42.808;23.408;2023-06-26T04:06:16;19.33;;;10.05;;
24279;SDS011;12395;42.808;23.408;2023-06-26T04:08:41;18.90;;;10.23;;
24279;SDS011;12395;42.808;23.408;2023-06-26T04:11:07;21.00;;;10.20;;
24279;SDS011;12395;42.808;23.408;2023-06-26T04:13:32;18.95;;;9.65;;
24279;SDS011;12395;42.808;23.408;2023-06-26T04:15:57;18.80;;;9.63;;
24279;SDS011;12395;42.808;23.408;2023-06-26T04:18:23;20.42;;;10.18;;
24279;SDS011;12395;42.808;23.408;2023-06-26T04:21:03;19.63;;;9.88;;
24279;SDS011;12395;42.808;23.408;2023-06-26T04:23:33;20.10;;;9.73;;
24279;SDS011;12395;42.808;23.408;2023-06-26T04:25:59;17.65;;;9.38;;
24279;SDS011;12395;42.808;23.408;2023-06-26T04:28:24;18.48;;;9.90;;
24279;SDS011;12395;42.808;23.408;2023-06-26T04:30:50;19.95;;;9.32;;
24279;SDS011;12395;42.808;23.408;2023-06-26T04:33:15;18.50;;;9.63;;
24279;SDS011;12395;42.808;23.408;2023-06-26T04:35:41;18.50;;;9.75;;
24279;SDS011;12395;42.808;23.408;2023-06-26T04:38:09;16.83;;;9.57;;
24279;SDS011;12395;42.808;23.408;2023-06-26T04:40:36;18.92;;;10.60;;
24279;SDS011;12395;42.808;23.408;2023-06-26T04:43:01;18.60;;;10.15;;
24279;SDS011;12395;42.808;23.408;2023-06-26T04:45:27;17.23;;;10.05;;
24279;SDS011;12395;42.808;23.408;2023-06-26T04:47:52;16.90;;;9.85;;
24279;SDS011;12395;42.808;23.408;2023-06-26T04:50:17;18.77;;;10.00;;
24279;SDS011;12395;42.808;23.408;2023-06-26T04:52:44;17.05;;;9.95;;
24279;SDS011;12395;42.808;23.408;2023-06-26T04:55:09;17.10;;;10.20;;
24279;SDS011;12395;42.808;23.408;2023-06-26T04:57:34;18.63;;;11.13;;
24279;SDS011;12395;42.808;23.408;2023-06-26T05:00:00;18.30;;;10.88;;
24279;SDS011;12395;42.808;23.408;2023-06-26T05:02:25;16.67;;;10.65;;
24279;SDS011;12395;42.808;23.408;2023-06-26T05:04:51;17.15;;;10.05;;
24279;SDS011;12395;42.808;23.408;2023-06-26T05:07:17;15.65;;;10.07;;
24279;SDS011;12395;42.808;23.408;2023-06-26T05:09:42;16.38;;;10.45;;
24279;SDS011;12395;42.808;23.408;2023-06-26T05:12:08;16.65;;;10.60;;
24279;SDS011;12395;42.808;23.408;2023-06-26T05:14:33;17.02;;;10.77;;
24279;SDS011;12395;42.808;23.408;2023-06-26T05:16:58;16.92;;;10.52;;
24279;SDS011;12395;42.808;23.408;2023-06-26T05:19:24;19.00;;;11.35;;
24279;SDS011;12395;42.808;23.408;2023-06-26T05:21:49;16.40;;;10.60;;
24279;SDS011;12395;42.808;23.408;2023-06-26T05:24:16;15.73;;;10.27;;
24279;SDS011;12395;42.808;23.408;2023-06-26T05:26:44;16.25;;;10.55;;
24279;SDS011;12395;42.808;23.408;2023-06-26T05:29:10;17.15;;;10.55;;
24279;SDS011;12395;42.808;23.408;2023-06-26T05:31:35;16.33;;;10.43;;
24279;SDS011;12395;42.808;23.408;2023-06-26T05:34:06;17.38;;;10.82;;
24279;SDS011;12395;42.808;23.408;2023-06-26T05:36:33;16.58;;;10.00;;
24279;SDS011;12395;42.808;23.408;2023-06-26T05:38:59;16.92;;;10.38;;
24279;SDS011;12395;42.808;23.408;2023-06-26T05:41:25;16.88;;;10.15;;
24279;SDS011;12395;42.808;23.408;2023-06-26T05:43:50;16.05;;;10.25;;
24279;SDS011;12395;42.808;23.408;2023-06-26T05:46:16;15.88;;;10.35;;
24279;SDS011;12395;42.808;23.408;2023-06-26T05:48:41;17.17;;;10.32;;
24279;SDS011;12395;42.808;23.408;2023-06-26T05:51:07;17.20;;;10.25;;
24279;SDS011;12395;42.808;23.408;2023-06-26T05:53:32;15.90;;;10.23;;
24279;SDS011;12395;42.808;23.408;2023-06-26T05:55:58;15.25;;;10.60;;
24279;SDS011;12395;42.808;23.408;2023-06-26T05:58:25;14.57;;;10.10;;
24279;SDS011;12395;42.808;23.408;2023-06-26T06:00:52;17.52;;;10.77;;
24279;SDS011;12395;42.808;23.408;2023-06-26T06:03:18;16.92;;;11.25;;
24279;SDS011;12395;42.808;23.408;2023-06-26T06:05:43;18.70;;;11.60;;
24279;SDS011;12395;42.808;23.408;2023-06-26T06:08:09;18.67;;;11.45;;
24279;SDS011;12395;42.808;23.408;2023-06-26T06:10:34;18.58;;;11.77;;
24279;SDS011;12395;42.808;23.408;2023-06-26T06:13:00;16.63;;;10.98;;
24279;SDS011;12395;42.808;23.408;2023-06-26T06:15:25;17.38;;;11.48;;
24279;SDS011;12395;42.808;23.408;2023-06-26T06:17:51;17.63;;;11.77;;
24279;SDS011;12395;42.808;23.408;2023-06-26T06:20:17;18.60;;;11.93;;
24279;SDS011;12395;42.808;23.408;2023-06-26T06:22:44;16.45;;;10.77;;
24279;SDS011;12395;42.808;23.408;2023-06-26T06:25:10;16.90;;;11.80;;
24279;SDS011;12395;42.808;23.408;2023-06-26T06:27:35;17.42;;;11.77;;
24279;SDS011;12395;42.808;23.408;2023-06-26T06:30:01;14.30;;;10.77;;
24279;SDS011;12395;42.808;23.408;2023-06-26T06:32:26;16.17;;;11.35;;
24279;SDS011;12395;42.808;23.408;2023-06-26T06:34:52;16.05;;;11.07;;
24279;SDS011;12395;42.808;23.408;2023-06-26T06:37:17;14.88;;;9.73;;
24279;SDS011;12395;42.808;23.408;2023-06-26T06:39:42;14.07;;;10.90;;
24279;SDS011;12395;42.808;23.408;2023-06-26T06:42:08;12.90;;;9.95;;
24279;SDS011;12395;42.808;23.408;2023-06-26T06:44:33;13.82;;;9.60;;
24279;SDS011;12395;42.808;23.408;2023-06-26T06:46:59;13.75;;;9.35;;
24279;SDS011;12395;42.808;23.408;2023-06-26T06:49:24;11.63;;;8.27;;
24279;SDS011;12395;42.808;23.408;2023-06-26T06:51:49;9.80;;;6.90;;
24279;SDS011;12395;42.808;23.408;2023-06-26T06:54:15;8.43;;;6.10;;
24279;SDS011;12395;42.808;23.408;2023-06-26T06:56:41;10.93;;;6.50;;
24279;SDS011;12395;42.808;23.408;2023-06-26T06:59:07;9.70;;;6.70;;
24279;SDS011;12395;42.808;23.408;2023-06-26T07:01:32;9.90;;;6.53;;
24279;SDS011;12395;42.808;23.408;2023-06-26T07:03:58;11.90;;;7.95;;
24279;SDS011;12395;42.808;23.408;2023-06-26T07:06:23;11.07;;;6.90;;
24279;SDS011;12395;42.808;23.408;2023-06-26T07:08:49;8.88;;;6.93;;
24279;SDS011;12395;42.808;23.408;2023-06-26T07:11:14;9.77;;;6.88;;
24279;SDS011;12395;42.808;23.408;2023-06-26T07:13:40;10.55;;;7.10;;
24279;SDS011;12395;42.808;23.408;2023-06-26T07:16:05;11.00;;;8.30;;
24279;SDS011;12395;42.808;23.408;2023-06-26T07:18:31;10.98;;;7.80;;
24279;SDS011;12395;42.808;23.408;2023-06-26T07:20:56;12.73;;;8.02;;
24279;SDS011;12395;42.808;23.408;2023-06-26T07:23:21;14.82;;;8.35;;
24279;SDS011;12395;42.808;23.408;2023-06-26T07:25:47;12.35;;;9.45;;
24279;SDS011;12395;42.808;23.408;2023-06-26T07:28:12;14.68;;;8.88;;
24279;SDS011;12395;42.808;23.408;2023-06-26T07:30:38;13.05;;;9.02;;
24279;SDS011;12395;42.808;23.408;2023-06-26T07:33:03;13.10;;;9.65;;
24279;SDS011;12395;42.808;23.408;2023-06-26T07:35:29;15.27;;;9.95;;
24279;SDS011;12395;42.808;23.408;2023-06-26T07:37:54;13.73;;;9.43;;
24279;SDS011;12395;42.808;23.408;2023-06-26T07:40:20;12.55;;;8.07;;
24279;SDS011;12395;42.808;23.408;2023-06-26T07:42:45;10.10;;;7.70;;
24279;SDS011;12395;42.808;23.408;2023-06-26T07:45:11;12.57;;;7.38;;
24279;SDS011;12395;42.808;23.408;2023-06-26T07:47:40;11.27;;;7.78;;
24279;SDS011;12395;42.808;23.408;2023-06-26T07:50:06;10.35;;;8.02;;
24279;SDS011;12395;42.808;23.408;2023-06-26T07:52:32;10.82;;;7.75;;
24279;SDS011;12395;42.808;23.408;2023-06-26T07:54:57;11.18;;;8.00;;
24279;SDS011;12395;42.808;23.408;2023-06-26T07:57:23;12.65;;;8.07;;
24279;SDS011;12395;42.808;23.408;2023-06-26T07:59:49;12.35;;;8.35;;
24279;SDS011;12395;42.808;23.408;2023-06-26T08:02:15;10.68;;;7.45;;
24279;SDS011;12395;42.808;23.408;2023-06-26T08:04:40;11.20;;;7.22;;
24279;SDS011;12395;42.808;23.408;2023-06-26T08:07:06;11.20;;;7.90;;
24279;SDS011;12395;42.808;23.408;2023-06-26T08:09:32;10.30;;;7.68;;
24279;SDS011;12395;42.808;23.408;2023-06-26T08:11:57;10.68;;;7.60;;
24279;SDS011;12395;42.808;23.408;2023-06-26T08:14:23;14.15;;;7.97;;
24279;SDS011;12395;42.808;23.408;2023-06-26T08:16:49;11.10;;;7.35;;
24279;SDS011;12395;42.808;23.408;2023-06-26T08:19:15;11.13;;;7.32;;
24279;SDS011;12395;42.808;23.408;2023-06-26T08:21:42;9.65;;;7.80;;
24279;SDS011;12395;42.808;23.408;2023-06-26T08:24:08;11.10;;;7.70;;
24279;SDS011;12395;42.808;23.408;2023-06-26T08:26:35;11.07;;;7.47;;
24279;SDS011;12395;42.808;23.408;2023-06-26T08:29:00;10.45;;;7.18;;
24279;SDS011;12395;42.808;23.408;2023-06-26T08:31:32;9.60;;;7.20;;
24279;SDS011;12395;42.808;23.408;2023-06-26T08:33:59;11.23;;;7.60;;
24279;SDS011;12395;42.808;23.408;2023-06-26T08:36:25;10.32;;;7.28;;
24279;SDS011;12395;42.808;23.408;2023-06-26T08:38:50;10.15;;;7.15;;
24279;SDS011;12395;42.808;23.408;2023-06-26T08:41:15;8.77;;;6.72;;
24279;SDS011;12395;42.808;23.408;2023-06-26T08:43:41;10.95;;;7.00;;
24279;SDS011;12395;42.808;23.408;2023-06-26T08:46:07;10.65;;;7.25;;
24279;SDS011;12395;42.808;23.408;2023-06-26T08:48:32;8.85;;;6.60;;
24279;SDS011;12395;42.808;23.408;2023-06-26T08:51:05;9.77;;;6.47;;
24279;SDS011;12395;42.808;23.408;2023-06-26T08:56:09;8.93;;;6.43;;
24279;SDS011;12395;42.808;23.408;2023-06-26T08:58:36;9.65;;;6.85;;
24279;SDS011;12395;42.808;23.408;2023-06-26T09:01:03;9.10;;;6.30;;
24279;SDS011;12395;42.808;23.408;2023-06-26T09:03:29;8.88;;;6.13;;
24279;SDS011;12395;42.808;23.408;2023-06-26T09:05:56;10.77;;;6.57;;
24279;SDS011;12395;42.808;23.408;2023-06-26T09:08:21;10.27;;;7.10;;
24279;SDS011;12395;42.808;23.408;2023-06-26T09:10:47;11.13;;;6.80;;
24279;SDS011;12395;42.808;23.408;2023-06-26T09:13:12;10.63;;;6.72;;
24279;SDS011;12395;42.808;23.408;2023-06-26T09:15:38;9.93;;;6.40;;
24279;SDS011;12395;42.808;23.408;2023-06-26T09:18:07;8.50;;;6.32;;
24279;SDS011;12395;42.808;23.408;2023-06-26T09:20:33;11.18;;;6.25;;
24279;SDS011;12395;42.808;23.408;2023-06-26T09:22:59;7.57;;;5.35;;
24279;SDS011;12395;42.808;23.408;2023-06-26T09:25:25;8.07;;;5.40;;
24279;SDS011;12395;42.808;23.408;2023-06-26T09:27:51;8.57;;;4.80;;
24279;SDS011;12395;42.808;23.408;2023-06-26T09:30:17;8.05;;;5.22;;
24279;SDS011;12395;42.808;23.408;2023-06-26T09:32:43;7.22;;;4.97;;
24279;SDS011;12395;42.808;23.408;2023-06-26T09:35:09;7.50;;;5.30;;
24279;SDS011;12395;42.808;23.408;2023-06-26T09:37:35;7.35;;;5.32;;
24279;SDS011;12395;42.808;23.408;2023-06-26T09:40:00;8.25;;;5.28;;
24279;SDS011;12395;42.808;23.408;2023-06-26T09:42:26;6.82;;;4.47;;
24279;SDS011;12395;42.808;23.408;2023-06-26T09:44:51;8.18;;;4.05;;
24279;SDS011;12395;42.808;23.408;2023-06-26T09:47:18;7.43;;;4.25;;
24279;SDS011;12395;42.808;23.408;2023-06-26T09:52:09;5.90;;;4.20;;
24279;SDS011;12395;42.808;23.408;2023-06-26T09:54:45;6.40;;;4.22;;
24279;SDS011;12395;42.808;23.408;2023-06-26T09:57:12;6.03;;;3.95;;
24279;SDS011;12395;42.808;23.408;2023-06-26T10:02:05;6.80;;;4.35;;
24279;SDS011;12395;42.808;23.408;2023-06-26T10:04:30;8.05;;;5.18;;
24279;SDS011;12395;42.808;23.408;2023-06-26T10:06:56;8.68;;;6.00;;
24279;SDS011;12395;42.808;23.408;2023-06-26T10:09:26;8.30;;;5.82;;
24279;SDS011;12395;42.808;23.408;2023-06-26T10:14:35;8.02;;;5.53;;
24279;SDS011;12395;42.808;23.408;2023-06-26T10:17:03;10.40;;;6.20;;
24279;SDS011;12395;42.808;23.408;2023-06-26T10:19:31;11.20;;;6.80;;
24279;SDS011;12395;42.808;23.408;2023-06-26T10:21:58;11.70;;;6.47;;
24279;SDS011;12395;42.808;23.408;2023-06-26T10:24:28;11.90;;;6.30;;
24279;SDS011;12395;42.808;23.408;2023-06-26T10:29:43;10.60;;;6.18;;
24279;SDS011;12395;42.808;23.408;2023-06-26T10:32:12;9.73;;;6.32;;
24279;SDS011;12395;42.808;23.408;2023-06-26T10:34:38;9.13;;;6.10;;
24279;SDS011;12395;42.808;23.408;2023-06-26T10:37:04;8.55;;;6.10;;
24279;SDS011;12395;42.808;23.408;2023-06-26T10:42:10;9.00;;;5.97;;
24279;SDS011;12395;42.808;23.408;2023-06-26T10:44:43;9.48;;;6.38;;
24279;SDS011;12395;42.808;23.408;2023-06-26T10:47:10;9.90;;;6.65;;
24279;SDS011;12395;42.808;23.408;2023-06-26T10:52:04;10.23;;;6.60;;
24279;SDS011;12395;42.808;23.408;2023-06-26T10:54:31;9.98;;;6.38;;
24279;SDS011;12395;42.808;23.408;2023-06-26T10:59:26;8.88;;;6.05;;
24279;SDS011;12395;42.808;23.408;2023-06-26T11:01:56;8.70;;;6.10;;
24279;SDS011;12395;42.808;23.408;2023-06-26T11:04:55;10.38;;;6.40;;
24279;SDS011;12395;42.808;23.408;2023-06-26T11:07:18;9.27;;;6.15;;
24279;SDS011;12395;42.808;23.408;2023-06-26T11:12:40;9.30;;;5.82;;
24279;SDS011;12395;42.808;23.408;2023-06-26T11:15:10;8.45;;;5.82;;
24279;SDS011;12395;42.808;23.408;2023-06-26T11:17:38;8.80;;;5.75;;
24279;SDS011;12395;42.808;23.408;2023-06-26T11:20:07;9.00;;;5.80;;
24279;SDS011;12395;42.808;23.408;2023-06-26T11:22:35;8.63;;;5.57;;
24279;SDS011;12395;42.808;23.408;2023-06-26T11:25:03;8.70;;;6.10;;
24279;SDS011;12395;42.808;23.408;2023-06-26T11:27:31;9.48;;;6.00;;
24279;SDS011;12395;42.808;23.408;2023-06-26T11:30:06;9.27;;;6.40;;
24279;SDS011;12395;42.808;23.408;2023-06-26T11:32:32;9.48;;;6.53;;
24279;SDS011;12395;42.808;23.408;2023-06-26T11:34:58;9.65;;;6.35;;
24279;SDS011;12395;42.808;23.408;2023-06-26T11:37:25;9.27;;;6.47;;
24279;SDS011;12395;42.808;23.408;2023-06-26T11:39:51;9.35;;;6.72;;
24279;SDS011;12395;42.808;23.408;2023-06-26T11:42:17;8.10;;;5.97;;
24279;SDS011;12395;42.808;23.408;2023-06-26T11:44:43;9.85;;;6.00;;
24279;SDS011;12395;42.808;23.408;2023-06-26T11:47:12;9.73;;;5.50;;
24279;SDS011;12395;42.808;23.408;2023-06-26T11:49:45;7.93;;;5.65;;
24279;SDS011;12395;42.808;23.408;2023-06-26T11:52:11;7.68;;;5.38;;
24279;SDS011;12395;42.808;23.408;2023-06-26T11:54:37;7.95;;;5.82;;
24279;SDS011;12395;42.808;23.408;2023-06-26T11:57:04;7.90;;;5.50;;
24279;SDS011;12395;42.808;23.408;2023-06-26T11:59:38;9.02;;;5.18;;
24279;SDS011;12395;42.808;23.408;2023-06-26T12:02:08;7.90;;;5.15;;
24279;SDS011;12395;42.808;23.408;2023-06-26T12:04:50;8.13;;;4.95;;
24279;SDS011;12395;42.808;23.408;2023-06-26T12:07:16;6.63;;;4.72;;
24279;SDS011;12395;42.808;23.408;2023-06-26T12:09:43;6.90;;;4.85;;
24279;SDS011;12395;42.808;23.408;2023-06-26T12:12:10;7.85;;;4.95;;
24279;SDS011;12395;42.808;23.408;2023-06-26T12:14:37;9.70;;;6.18;;
24279;SDS011;12395;42.808;23.408;2023-06-26T12:17:09;11.23;;;6.20;;
24279;SDS011;12395;42.808;23.408;2023-06-26T12:19:37;9.32;;;5.40;;
24279;SDS011;12395;42.808;23.408;2023-06-26T12:22:07;8.48;;;5.00;;
24279;SDS011;12395;42.808;23.408;2023-06-26T12:24:35;8.23;;;5.05;;
24279;SDS011;12395;42.808;23.408;2023-06-26T12:27:02;9.57;;;5.22;;
24279;SDS011;12395;42.808;23.408;2023-06-26T12:29:32;8.00;;;5.22;;
24279;SDS011;12395;42.808;23.408;2023-06-26T12:31:58;11.55;;;5.63;;
24279;SDS011;12395;42.808;23.408;2023-06-26T12:34:29;8.25;;;5.15;;
24279;SDS011;12395;42.808;23.408;2023-06-26T12:37:01;7.97;;;5.07;;
24279;SDS011;12395;42.808;23.408;2023-06-26T12:39:28;8.02;;;5.32;;
24279;SDS011;12395;42.808;23.408;2023-06-26T12:41:55;7.68;;;5.05;;
24279;SDS011;12395;42.808;23.408;2023-06-26T12:44:26;7.60;;;5.07;;
24279;SDS011;12395;42.808;23.408;2023-06-26T12:46:54;7.35;;;4.82;;
24279;SDS011;12395;42.808;23.408;2023-06-26T12:49:33;6.72;;;4.38;;
24279;SDS011;12395;42.808;23.408;2023-06-26T12:51:59;7.53;;;5.10;;
24279;SDS011;12395;42.808;23.408;2023-06-26T12:54:26;7.72;;;4.68;;
24279;SDS011;12395;42.808;23.408;2023-06-26T12:56:52;7.05;;;3.78;;
24279;SDS011;12395;42.808;23.408;2023-06-26T12:59:18;6.95;;;3.67;;
24279;SDS011;12395;42.808;23.408;2023-06-26T13:01:43;5.82;;;3.85;;
24279;SDS011;12395;42.808;23.408;2023-06-26T13:04:10;5.57;;;3.78;;
24279;SDS011;12395;42.808;23.408;2023-06-26T13:06:36;7.60;;;4.03;;
24279;SDS011;12395;42.808;23.408;2023-06-26T13:09:01;7.22;;;4.47;;
24279;SDS011;12395;42.808;23.408;2023-06-26T13:11:30;6.13;;;4.22;;
24279;SDS011;12395;42.808;23.408;2023-06-26T13:13:56;7.13;;;4.50;;
24279;SDS011;12395;42.808;23.408;2023-06-26T13:16:22;6.57;;;4.20;;
24279;SDS011;12395;42.808;23.408;2023-06-26T13:18:48;7.20;;;4.50;;
24279;SDS011;12395;42.808;23.408;2023-06-26T13:21:13;7.43;;;4.70;;
24279;SDS011;12395;42.808;23.408;2023-06-26T13:23:40;10.32;;;4.80;;
24279;SDS011;12395;42.808;23.408;2023-06-26T13:26:05;6.93;;;4.40;;
24279;SDS011;12395;42.808;23.408;2023-06-26T13:28:31;6.43;;;4.38;;
24279;SDS011;12395;42.808;23.408;2023-06-26T13:30:56;8.32;;;4.60;;
24279;SDS011;12395;42.808;23.408;2023-06-26T13:33:22;8.13;;;4.82;;
24279;SDS011;12395;42.808;23.408;2023-06-26T13:35:50;7.45;;;5.05;;
24279;SDS011;12395;42.808;23.408;2023-06-26T13:38:19;8.13;;;4.93;;
24279;SDS011;12395;42.808;23.408;2023-06-26T13:40:49;7.35;;;5.00;;
24279;SDS011;12395;42.808;23.408;2023-06-26T13:43:17;7.18;;;5.13;;
24279;SDS011;12395;42.808;23.408;2023-06-26T13:45:43;8.38;;;5.10;;
24279;SDS011;12395;42.808;23.408;2023-06-26T13:48:09;8.93;;;5.05;;
24279;SDS011;12395;42.808;23.408;2023-06-26T13:50:34;7.93;;;5.10;;
24279;SDS011;12395;42.808;23.408;2023-06-26T13:53:00;8.43;;;5.07;;
24279;SDS011;12395;42.808;23.408;2023-06-26T13:55:25;9.57;;;5.15;;
24279;SDS011;12395;42.808;23.408;2023-06-26T13:57:51;9.40;;;5.53;;
24279;SDS011;12395;42.808;23.408;2023-06-26T14:00:16;8.35;;;5.13;;
24279;SDS011;12395;42.808;23.408;2023-06-26T14:02:45;8.85;;;4.80;;
24279;SDS011;12395;42.808;23.408;2023-06-26T14:05:11;8.48;;;5.15;;
24279;SDS011;12395;42.808;23.408;2023-06-26T14:07:36;8.75;;;5.05;;
24279;SDS011;12395;42.808;23.408;2023-06-26T14:10:03;6.35;;;4.50;;
24279;SDS011;12395;42.808;23.408;2023-06-26T14:12:30;6.90;;;4.57;;
24279;SDS011;12395;42.808;23.408;2023-06-26T14:14:55;6.30;;;4.55;;
24279;SDS011;12395;42.808;23.408;2023-06-26T14:17:20;11.05;;;5.18;;
24279;SDS011;12395;42.808;23.408;2023-06-26T14:19:49;8.13;;;4.65;;
24279;SDS011;12395;42.808;23.408;2023-06-26T14:22:14;10.13;;;4.72;;
24279;SDS011;12395;42.808;23.408;2023-06-26T14:24:40;9.55;;;4.82;;
24279;SDS011;12395;42.808;23.408;2023-06-26T14:27:05;7.85;;;4.57;;
24279;SDS011;12395;42.808;23.408;2023-06-26T14:29:31;9.07;;;4.68;;
24279;SDS011;12395;42.808;23.408;2023-06-26T14:31:56;7.05;;;4.60;;
24279;SDS011;12395;42.808;23.408;2023-06-26T14:34:21;7.88;;;5.03;;
24279;SDS011;12395;42.808;23.408;2023-06-26T14:36:47;8.00;;;4.57;;
24279;SDS011;12395;42.808;23.408;2023-06-26T14:39:12;8.20;;;4.60;;
24279;SDS011;12395;42.808;23.408;2023-06-26T14:41:38;7.38;;;4.22;;
24279;SDS011;12395;42.808;23.408;2023-06-26T14:44:03;6.50;;;4.50;;
24279;SDS011;12395;42.808;23.408;2023-06-26T14:46:29;8.95;;;4.70;;
24279;SDS011;12395;42.808;23.408;2023-06-26T14:48:55;6.88;;;4.65;;
24279;SDS011;12395;42.808;23.408;2023-06-26T14:51:20;7.45;;;4.65;;
24279;SDS011;12395;42.808;23.408;2023-06-26T14:53:47;8.63;;;4.63;;
24279;SDS011;12395;42.808;23.408;2023-06-26T14:56:12;6.93;;;4.13;;
24279;SDS011;12395;42.808;23.408;2023-06-26T14:58:38;7.00;;;4.18;;